sensor_id;sensor_type;location;lat;lon;timestamp;temperature;humidity
81524;DHT22;70954;49.500;10.416;2023-09-19T00:00:18;19.50;63.10
81524;DHT22;70954;49.500;10.416;2023-09-19T00:02:45;19.40;63.00
81524;DHT22;70954;49.500;10.416;2023-09-19T00:05:10;19.40;63.00
81524;DHT22;70954;49.500;10.416;2023-09-19T00:07:36;19.40;63.00
81524;DHT22;70954;49.500;10.416;2023-09-19T00:10:01;19.40;62.90
81524;DHT22;70954;49.500;10.416;2023-09-19T00:12:27;19.40;62.90
81524;DHT22;70954;49.500;10.416;2023-09-19T00:14:52;19.30;62.90
81524;DHT22;70954;49.500;10.416;2023-09-19T00:17:18;19.30;63.00
81524;DHT22;70954;49.500;10.416;2023-09-19T00:19:43;19.30;63.00
81524;DHT22;70954;49.500;10.416;2023-09-19T00:22:09;19.20;63.00
81524;DHT22;70954;49.500;10.416;2023-09-19T00:24:34;19.20;63.10
81524;DHT22;70954;49.500;10.416;2023-09-19T00:26:59;19.20;63.20
81524;DHT22;70954;49.500;10.416;2023-09-19T00:29:26;19.10;63.20
81524;DHT22;70954;49.500;10.416;2023-09-19T00:31:51;19.10;63.20
81524;DHT22;70954;49.500;10.416;2023-09-19T00:34:16;19.10;63.20
81524;DHT22;70954;49.500;10.416;2023-09-19T00:36:42;19.10;63.20
81524;DHT22;70954;49.500;10.416;2023-09-19T00:39:07;19.10;63.20
81524;DHT22;70954;49.500;10.416;2023-09-19T00:41:33;19.00;63.20
81524;DHT22;70954;49.500;10.416;2023-09-19T00:43:58;19.00;63.20
81524;DHT22;70954;49.500;10.416;2023-09-19T00:46:24;19.00;63.20
81524;DHT22;70954;49.500;10.416;2023-09-19T00:48:49;19.00;63.20
81524;DHT22;70954;49.500;10.416;2023-09-19T00:51:15;19.00;63.30
81524;DHT22;70954;49.500;10.416;2023-09-19T00:53:41;19.00;63.40
81524;DHT22;70954;49.500;10.416;2023-09-19T00:56:06;19.00;63.50
81524;DHT22;70954;49.500;10.416;2023-09-19T00:58:32;19.00;63.60
81524;DHT22;70954;49.500;10.416;2023-09-19T01:00:58;19.00;63.60
81524;DHT22;70954;49.500;10.416;2023-09-19T01:03:23;19.00;63.70
81524;DHT22;70954;49.500;10.416;2023-09-19T01:05:49;19.00;63.70
81524;DHT22;70954;49.500;10.416;2023-09-19T01:08:15;19.00;63.70
81524;DHT22;70954;49.500;10.416;2023-09-19T01:10:51;19.00;63.70
81524;DHT22;70954;49.500;10.416;2023-09-19T01:13:35;19.10;63.70
81524;DHT22;70954;49.500;10.416;2023-09-19T01:16:19;19.00;63.80
81524;DHT22;70954;49.500;10.416;2023-09-19T01:21:38;19.10;63.80
81524;DHT22;70954;49.500;10.416;2023-09-19T01:29:49;19.10;63.70
81524;DHT22;70954;49.500;10.416;2023-09-19T01:32:18;19.20;63.70
81524;DHT22;70954;49.500;10.416;2023-09-19T01:34:55;19.20;63.60
81524;DHT22;70954;49.500;10.416;2023-09-19T01:37:21;19.20;63.70
81524;DHT22;70954;49.500;10.416;2023-09-19T01:39:49;19.20;63.60
81524;DHT22;70954;49.500;10.416;2023-09-19T01:45:12;19.20;63.60
81524;DHT22;70954;49.500;10.416;2023-09-19T01:47:46;19.20;63.60
81524;DHT22;70954;49.500;10.416;2023-09-19T01:53:09;19.30;63.60
81524;DHT22;70954;49.500;10.416;2023-09-19T01:55:43;19.30;63.50
81524;DHT22;70954;49.500;10.416;2023-09-19T02:00:40;19.30;63.40
81524;DHT22;70954;49.500;10.416;2023-09-19T02:03:07;19.20;63.30
81524;DHT22;70954;49.500;10.416;2023-09-19T02:05:33;19.20;63.20
81524;DHT22;70954;49.500;10.416;2023-09-19T02:07:59;19.20;63.20
81524;DHT22;70954;49.500;10.416;2023-09-19T02:10:24;19.20;63.20
81524;DHT22;70954;49.500;10.416;2023-09-19T02:12:50;19.20;63.20
81524;DHT22;70954;49.500;10.416;2023-09-19T02:15:16;19.20;63.20
81524;DHT22;70954;49.500;10.416;2023-09-19T02:17:42;19.20;63.20
81524;DHT22;70954;49.500;10.416;2023-09-19T02:20:08;19.20;63.20
81524;DHT22;70954;49.500;10.416;2023-09-19T02:22:34;19.10;63.30
81524;DHT22;70954;49.500;10.416;2023-09-19T02:24:59;19.10;63.30
81524;DHT22;70954;49.500;10.416;2023-09-19T02:27:25;19.10;63.30
81524;DHT22;70954;49.500;10.416;2023-09-19T02:29:50;19.00;63.40
81524;DHT22;70954;49.500;10.416;2023-09-19T02:32:16;19.00;63.60
81524;DHT22;70954;49.500;10.416;2023-09-19T02:34:41;19.00;63.60
81524;DHT22;70954;49.500;10.416;2023-09-19T02:37:07;19.00;63.50
81524;DHT22;70954;49.500;10.416;2023-09-19T02:39:32;19.00;63.60
81524;DHT22;70954;49.500;10.416;2023-09-19T02:41:58;19.00;63.60
81524;DHT22;70954;49.500;10.416;2023-09-19T02:44:23;19.00;63.50
81524;DHT22;70954;49.500;10.416;2023-09-19T02:46:49;19.00;63.50
81524;DHT22;70954;49.500;10.416;2023-09-19T02:49:15;18.90;63.60
81524;DHT22;70954;49.500;10.416;2023-09-19T02:51:40;18.90;63.70
81524;DHT22;70954;49.500;10.416;2023-09-19T02:54:06;18.90;63.70
81524;DHT22;70954;49.500;10.416;2023-09-19T02:56:31;18.90;63.80
81524;DHT22;70954;49.500;10.416;2023-09-19T02:58:57;18.90;63.90
81524;DHT22;70954;49.500;10.416;2023-09-19T03:01:22;18.90;63.90
81524;DHT22;70954;49.500;10.416;2023-09-19T03:03:48;18.80;63.90
81524;DHT22;70954;49.500;10.416;2023-09-19T03:06:13;18.80;64.00
81524;DHT22;70954;49.500;10.416;2023-09-19T03:08:39;18.80;64.00
81524;DHT22;70954;49.500;10.416;2023-09-19T03:11:05;18.80;64.10
81524;DHT22;70954;49.500;10.416;2023-09-19T03:13:33;18.80;64.10
81524;DHT22;70954;49.500;10.416;2023-09-19T03:15:59;18.80;64.10
81524;DHT22;70954;49.500;10.416;2023-09-19T03:18:25;18.80;64.20
81524;DHT22;70954;49.500;10.416;2023-09-19T03:20:54;18.80;64.20
81524;DHT22;70954;49.500;10.416;2023-09-19T03:23:19;18.80;64.30
81524;DHT22;70954;49.500;10.416;2023-09-19T03:25:45;18.70;64.20
81524;DHT22;70954;49.500;10.416;2023-09-19T03:28:10;18.70;64.40
81524;DHT22;70954;49.500;10.416;2023-09-19T03:30:36;18.70;64.50
81524;DHT22;70954;49.500;10.416;2023-09-19T03:33:01;18.70;64.60
81524;DHT22;70954;49.500;10.416;2023-09-19T03:35:27;18.70;64.70
81524;DHT22;70954;49.500;10.416;2023-09-19T03:37:52;18.70;64.80
81524;DHT22;70954;49.500;10.416;2023-09-19T03:40:18;18.70;64.90
81524;DHT22;70954;49.500;10.416;2023-09-19T03:42:43;18.70;64.90
81524;DHT22;70954;49.500;10.416;2023-09-19T03:45:09;18.80;65.00
81524;DHT22;70954;49.500;10.416;2023-09-19T03:47:35;18.80;65.00
81524;DHT22;70954;49.500;10.416;2023-09-19T03:50:00;18.80;65.10
81524;DHT22;70954;49.500;10.416;2023-09-19T03:52:25;18.80;65.10
81524;DHT22;70954;49.500;10.416;2023-09-19T03:54:51;18.90;65.20
81524;DHT22;70954;49.500;10.416;2023-09-19T03:57:16;18.90;65.20
81524;DHT22;70954;49.500;10.416;2023-09-19T03:59:42;18.90;65.20
81524;DHT22;70954;49.500;10.416;2023-09-19T04:02:07;18.90;65.30
81524;DHT22;70954;49.500;10.416;2023-09-19T04:04:33;19.00;65.20
81524;DHT22;70954;49.500;10.416;2023-09-19T04:06:58;19.00;65.20
81524;DHT22;70954;49.500;10.416;2023-09-19T04:09:24;19.00;65.10
81524;DHT22;70954;49.500;10.416;2023-09-19T04:11:49;19.00;65.20
81524;DHT22;70954;49.500;10.416;2023-09-19T04:14:14;19.00;65.20
81524;DHT22;70954;49.500;10.416;2023-09-19T04:16:40;19.10;65.10
81524;DHT22;70954;49.500;10.416;2023-09-19T04:19:05;19.10;65.20
81524;DHT22;70954;49.500;10.416;2023-09-19T04:21:31;19.10;65.10
81524;DHT22;70954;49.500;10.416;2023-09-19T04:23:56;19.10;65.10
81524;DHT22;70954;49.500;10.416;2023-09-19T04:26:22;19.20;65.00
81524;DHT22;70954;49.500;10.416;2023-09-19T04:28:47;19.20;64.90
81524;DHT22;70954;49.500;10.416;2023-09-19T04:31:13;19.20;64.90
81524;DHT22;70954;49.500;10.416;2023-09-19T04:33:38;19.20;64.80
81524;DHT22;70954;49.500;10.416;2023-09-19T04:36:04;19.20;64.70
81524;DHT22;70954;49.500;10.416;2023-09-19T04:38:29;19.20;64.70
81524;DHT22;70954;49.500;10.416;2023-09-19T04:40:58;19.20;64.70
81524;DHT22;70954;49.500;10.416;2023-09-19T04:43:23;19.20;64.70
81524;DHT22;70954;49.500;10.416;2023-09-19T04:45:48;19.20;64.70
81524;DHT22;70954;49.500;10.416;2023-09-19T04:48:14;19.20;64.70
81524;DHT22;70954;49.500;10.416;2023-09-19T04:50:39;19.20;64.70
81524;DHT22;70954;49.500;10.416;2023-09-19T04:53:05;19.20;64.70
81524;DHT22;70954;49.500;10.416;2023-09-19T04:55:30;19.20;64.60
81524;DHT22;70954;49.500;10.416;2023-09-19T04:57:56;19.20;64.60
81524;DHT22;70954;49.500;10.416;2023-09-19T05:00:22;19.20;64.60
81524;DHT22;70954;49.500;10.416;2023-09-19T05:02:50;19.20;64.60
81524;DHT22;70954;49.500;10.416;2023-09-19T05:05:15;19.20;64.50
81524;DHT22;70954;49.500;10.416;2023-09-19T05:07:41;19.20;64.60
81524;DHT22;70954;49.500;10.416;2023-09-19T05:10:07;19.20;64.60
81524;DHT22;70954;49.500;10.416;2023-09-19T05:12:36;19.20;64.60
81524;DHT22;70954;49.500;10.416;2023-09-19T05:15:05;19.20;64.60
81524;DHT22;70954;49.500;10.416;2023-09-19T05:17:31;19.20;64.60
81524;DHT22;70954;49.500;10.416;2023-09-19T05:19:57;19.20;64.60
81524;DHT22;70954;49.500;10.416;2023-09-19T05:22:22;19.20;64.60
81524;DHT22;70954;49.500;10.416;2023-09-19T05:24:48;19.20;64.70
81524;DHT22;70954;49.500;10.416;2023-09-19T05:27:14;19.20;64.70
81524;DHT22;70954;49.500;10.416;2023-09-19T05:29:40;19.20;64.60
81524;DHT22;70954;49.500;10.416;2023-09-19T05:32:05;19.20;64.70
81524;DHT22;70954;49.500;10.416;2023-09-19T05:34:31;19.20;64.70
81524;DHT22;70954;49.500;10.416;2023-09-19T05:36:56;19.20;64.70
81524;DHT22;70954;49.500;10.416;2023-09-19T05:39:22;19.20;64.60
81524;DHT22;70954;49.500;10.416;2023-09-19T05:41:47;19.20;64.60
81524;DHT22;70954;49.500;10.416;2023-09-19T05:44:13;19.20;64.60
81524;DHT22;70954;49.500;10.416;2023-09-19T05:46:38;19.20;64.70
81524;DHT22;70954;49.500;10.416;2023-09-19T05:49:04;19.20;64.60
81524;DHT22;70954;49.500;10.416;2023-09-19T05:51:29;19.20;64.50
81524;DHT22;70954;49.500;10.416;2023-09-19T05:53:55;19.20;64.40
81524;DHT22;70954;49.500;10.416;2023-09-19T05:56:20;19.20;64.40
81524;DHT22;70954;49.500;10.416;2023-09-19T05:58:45;19.20;64.30
81524;DHT22;70954;49.500;10.416;2023-09-19T06:01:11;19.20;64.20
81524;DHT22;70954;49.500;10.416;2023-09-19T06:03:36;19.20;64.10
81524;DHT22;70954;49.500;10.416;2023-09-19T06:06:02;19.20;64.10
81524;DHT22;70954;49.500;10.416;2023-09-19T06:08:28;19.20;64.00
81524;DHT22;70954;49.500;10.416;2023-09-19T06:10:53;19.20;64.00
81524;DHT22;70954;49.500;10.416;2023-09-19T06:13:19;19.20;63.90
81524;DHT22;70954;49.500;10.416;2023-09-19T06:15:44;19.20;63.90
81524;DHT22;70954;49.500;10.416;2023-09-19T06:18:13;19.10;63.90
81524;DHT22;70954;49.500;10.416;2023-09-19T06:20:38;19.10;63.90
81524;DHT22;70954;49.500;10.416;2023-09-19T06:23:04;19.10;63.90
81524;DHT22;70954;49.500;10.416;2023-09-19T06:25:29;19.10;64.00
81524;DHT22;70954;49.500;10.416;2023-09-19T06:27:54;19.10;64.10
81524;DHT22;70954;49.500;10.416;2023-09-19T06:30:38;19.10;64.20
81524;DHT22;70954;49.500;10.416;2023-09-19T06:33:04;19.10;64.20
81524;DHT22;70954;49.500;10.416;2023-09-19T06:35:32;19.20;64.30
81524;DHT22;70954;49.500;10.416;2023-09-19T06:37:57;19.20;64.20
81524;DHT22;70954;49.500;10.416;2023-09-19T06:40:23;19.20;64.20
81524;DHT22;70954;49.500;10.416;2023-09-19T06:42:51;19.20;64.20
81524;DHT22;70954;49.500;10.416;2023-09-19T06:45:17;19.30;64.20
81524;DHT22;70954;49.500;10.416;2023-09-19T06:47:43;19.30;64.20
81524;DHT22;70954;49.500;10.416;2023-09-19T06:50:09;19.30;64.00
81524;DHT22;70954;49.500;10.416;2023-09-19T06:52:34;19.40;64.00
81524;DHT22;70954;49.500;10.416;2023-09-19T06:55:00;19.40;63.90
81524;DHT22;70954;49.500;10.416;2023-09-19T06:57:26;19.50;63.40
81524;DHT22;70954;49.500;10.416;2023-09-19T06:59:51;19.50;63.10
81524;DHT22;70954;49.500;10.416;2023-09-19T07:02:17;19.50;63.10
81524;DHT22;70954;49.500;10.416;2023-09-19T07:04:42;19.50;62.80
81524;DHT22;70954;49.500;10.416;2023-09-19T07:07:07;19.60;62.60
81524;DHT22;70954;49.500;10.416;2023-09-19T07:09:33;19.60;62.70
81524;DHT22;70954;49.500;10.416;2023-09-19T07:11:58;19.70;62.70
81524;DHT22;70954;49.500;10.416;2023-09-19T07:14:24;19.70;62.70
81524;DHT22;70954;49.500;10.416;2023-09-19T07:16:49;19.70;62.50
81524;DHT22;70954;49.500;10.416;2023-09-19T07:19:15;19.90;62.00
81524;DHT22;70954;49.500;10.416;2023-09-19T07:21:40;19.90;61.90
81524;DHT22;70954;49.500;10.416;2023-09-19T07:24:06;20.00;61.70
81524;DHT22;70954;49.500;10.416;2023-09-19T07:26:31;20.00;61.30
81524;DHT22;70954;49.500;10.416;2023-09-19T07:28:57;20.00;61.20
81524;DHT22;70954;49.500;10.416;2023-09-19T07:31:22;20.10;61.00
81524;DHT22;70954;49.500;10.416;2023-09-19T07:33:48;20.10;60.40
81524;DHT22;70954;49.500;10.416;2023-09-19T07:36:14;20.10;60.20
81524;DHT22;70954;49.500;10.416;2023-09-19T07:38:40;20.10;60.00
81524;DHT22;70954;49.500;10.416;2023-09-19T07:41:06;20.10;60.00
81524;DHT22;70954;49.500;10.416;2023-09-19T07:43:31;20.10;59.80
81524;DHT22;70954;49.500;10.416;2023-09-19T07:45:57;20.10;59.70
81524;DHT22;70954;49.500;10.416;2023-09-19T07:48:22;20.10;59.80
81524;DHT22;70954;49.500;10.416;2023-09-19T07:50:48;20.00;59.60
81524;DHT22;70954;49.500;10.416;2023-09-19T07:53:13;20.10;59.90
81524;DHT22;70954;49.500;10.416;2023-09-19T07:55:39;20.00;60.00
81524;DHT22;70954;49.500;10.416;2023-09-19T07:58:04;20.10;60.00
81524;DHT22;70954;49.500;10.416;2023-09-19T08:00:30;20.10;60.00
81524;DHT22;70954;49.500;10.416;2023-09-19T08:02:55;20.10;60.20
81524;DHT22;70954;49.500;10.416;2023-09-19T08:05:21;20.10;60.00
81524;DHT22;70954;49.500;10.416;2023-09-19T08:07:46;20.20;60.00
81524;DHT22;70954;49.500;10.416;2023-09-19T08:10:12;20.30;59.90
81524;DHT22;70954;49.500;10.416;2023-09-19T08:12:37;20.30;60.00
81524;DHT22;70954;49.500;10.416;2023-09-19T08:15:03;20.30;59.80
81524;DHT22;70954;49.500;10.416;2023-09-19T08:17:33;20.40;59.70
81524;DHT22;70954;49.500;10.416;2023-09-19T08:19:59;20.50;59.00
81524;DHT22;70954;49.500;10.416;2023-09-19T08:22:24;20.50;58.90
81524;DHT22;70954;49.500;10.416;2023-09-19T08:24:49;20.50;58.70
81524;DHT22;70954;49.500;10.416;2023-09-19T08:27:15;20.60;58.30
81524;DHT22;70954;49.500;10.416;2023-09-19T08:29:41;20.60;57.90
81524;DHT22;70954;49.500;10.416;2023-09-19T08:34:40;20.70;57.00
81524;DHT22;70954;49.500;10.416;2023-09-19T08:37:05;20.70;57.60
81524;DHT22;70954;49.500;10.416;2023-09-19T08:39:30;20.70;57.60
81524;DHT22;70954;49.500;10.416;2023-09-19T08:42:00;20.70;57.50
81524;DHT22;70954;49.500;10.416;2023-09-19T08:44:26;20.80;57.50
81524;DHT22;70954;49.500;10.416;2023-09-19T08:46:55;20.80;57.40
81524;DHT22;70954;49.500;10.416;2023-09-19T08:52:20;20.80;56.40
81524;DHT22;70954;49.500;10.416;2023-09-19T08:54:48;20.80;56.50
81524;DHT22;70954;49.500;10.416;2023-09-19T08:57:17;20.80;56.50
81524;DHT22;70954;49.500;10.416;2023-09-19T08:59:43;20.80;56.00
81524;DHT22;70954;49.500;10.416;2023-09-19T09:02:11;20.80;56.00
81524;DHT22;70954;49.500;10.416;2023-09-19T09:04:42;20.80;56.10
81524;DHT22;70954;49.500;10.416;2023-09-19T09:07:12;20.80;55.90
81524;DHT22;70954;49.500;10.416;2023-09-19T09:09:38;20.80;56.20
81524;DHT22;70954;49.500;10.416;2023-09-19T09:12:04;20.80;56.20
81524;DHT22;70954;49.500;10.416;2023-09-19T09:14:30;20.80;56.20
81524;DHT22;70954;49.500;10.416;2023-09-19T09:16:55;20.80;56.10
81524;DHT22;70954;49.500;10.416;2023-09-19T09:19:21;20.80;56.10
81524;DHT22;70954;49.500;10.416;2023-09-19T09:21:46;20.80;55.60
81524;DHT22;70954;49.500;10.416;2023-09-19T09:24:28;20.80;55.70
81524;DHT22;70954;49.500;10.416;2023-09-19T09:26:54;20.80;55.10
81524;DHT22;70954;49.500;10.416;2023-09-19T09:29:44;20.80;55.50
81524;DHT22;70954;49.500;10.416;2023-09-19T09:32:27;20.80;55.20
81524;DHT22;70954;49.500;10.416;2023-09-19T09:37:20;20.80;55.70
81524;DHT22;70954;49.500;10.416;2023-09-19T09:39:58;20.90;55.80
81524;DHT22;70954;49.500;10.416;2023-09-19T09:42:35;20.90;55.40
81524;DHT22;70954;49.500;10.416;2023-09-19T09:45:20;20.90;55.40
81524;DHT22;70954;49.500;10.416;2023-09-19T09:47:49;20.90;55.50
81524;DHT22;70954;49.500;10.416;2023-09-19T09:50:14;20.90;55.00
81524;DHT22;70954;49.500;10.416;2023-09-19T09:52:48;21.00;55.30
81524;DHT22;70954;49.500;10.416;2023-09-19T09:55:13;21.00;54.80
81524;DHT22;70954;49.500;10.416;2023-09-19T09:58:17;21.00;54.80
81524;DHT22;70954;49.500;10.416;2023-09-19T10:00:53;21.00;53.30
81524;DHT22;70954;49.500;10.416;2023-09-19T10:03:21;21.00;53.80
81524;DHT22;70954;49.500;10.416;2023-09-19T10:05:53;21.00;54.00
81524;DHT22;70954;49.500;10.416;2023-09-19T10:08:19;21.00;53.40
81524;DHT22;70954;49.500;10.416;2023-09-19T10:10:44;21.00;53.90
81524;DHT22;70954;49.500;10.416;2023-09-19T10:13:12;21.00;53.80
81524;DHT22;70954;49.500;10.416;2023-09-19T10:15:38;21.00;53.90
81524;DHT22;70954;49.500;10.416;2023-09-19T10:18:07;21.00;53.60
81524;DHT22;70954;49.500;10.416;2023-09-19T10:20:32;21.00;52.90
81524;DHT22;70954;49.500;10.416;2023-09-19T10:23:00;21.00;52.80
81524;DHT22;70954;49.500;10.416;2023-09-19T10:25:27;21.00;52.10
81524;DHT22;70954;49.500;10.416;2023-09-19T10:27:54;21.00;52.60
81524;DHT22;70954;49.500;10.416;2023-09-19T10:30:20;21.00;52.40
81524;DHT22;70954;49.500;10.416;2023-09-19T10:32:46;21.00;52.30
81524;DHT22;70954;49.500;10.416;2023-09-19T10:35:15;21.00;52.50
81524;DHT22;70954;49.500;10.416;2023-09-19T10:37:43;21.10;52.10
81524;DHT22;70954;49.500;10.416;2023-09-19T10:40:10;21.10;52.50
81524;DHT22;70954;49.500;10.416;2023-09-19T10:42:38;21.10;52.20
81524;DHT22;70954;49.500;10.416;2023-09-19T10:45:06;21.10;51.90
81524;DHT22;70954;49.500;10.416;2023-09-19T10:47:33;21.10;52.20
81524;DHT22;70954;49.500;10.416;2023-09-19T10:49:58;21.20;51.90
81524;DHT22;70954;49.500;10.416;2023-09-19T10:52:25;21.20;52.00
81524;DHT22;70954;49.500;10.416;2023-09-19T10:54:54;21.30;51.90
81524;DHT22;70954;49.500;10.416;2023-09-19T10:57:21;21.40;51.50
81524;DHT22;70954;49.500;10.416;2023-09-19T11:00:09;21.30;48.30
81524;DHT22;70954;49.500;10.416;2023-09-19T11:02:34;21.40;50.20
81524;DHT22;70954;49.500;10.416;2023-09-19T11:05:11;21.30;50.20
81524;DHT22;70954;49.500;10.416;2023-09-19T11:07:57;21.40;51.30
81524;DHT22;70954;49.500;10.416;2023-09-19T11:10:52;21.50;50.40
81524;DHT22;70954;49.500;10.416;2023-09-19T11:13:28;21.50;49.60
81524;DHT22;70954;49.500;10.416;2023-09-19T11:26:45;21.70;48.90
81524;DHT22;70954;49.500;10.416;2023-09-19T11:29:30;21.70;49.40
81524;DHT22;70954;49.500;10.416;2023-09-19T11:31:56;21.70;49.20
81524;DHT22;70954;49.500;10.416;2023-09-19T11:40:06;21.70;48.40
81524;DHT22;70954;49.500;10.416;2023-09-19T11:42:48;21.70;48.80
81524;DHT22;70954;49.500;10.416;2023-09-19T11:48:05;21.70;46.70
81524;DHT22;70954;49.500;10.416;2023-09-19T11:50:32;21.70;48.00
81524;DHT22;70954;49.500;10.416;2023-09-19T11:52:58;21.70;47.60
81524;DHT22;70954;49.500;10.416;2023-09-19T11:55:25;21.70;47.30
81524;DHT22;70954;49.500;10.416;2023-09-19T11:57:55;21.70;47.40
81524;DHT22;70954;49.500;10.416;2023-09-19T12:00:20;21.70;47.90
81524;DHT22;70954;49.500;10.416;2023-09-19T12:02:47;21.70;47.50
81524;DHT22;70954;49.500;10.416;2023-09-19T12:05:16;21.70;47.90
81524;DHT22;70954;49.500;10.416;2023-09-19T12:07:44;21.70;47.70
81524;DHT22;70954;49.500;10.416;2023-09-19T12:10:10;21.80;47.50
81524;DHT22;70954;49.500;10.416;2023-09-19T12:12:35;21.80;47.20
81524;DHT22;70954;49.500;10.416;2023-09-19T12:15:02;21.90;47.50
81524;DHT22;70954;49.500;10.416;2023-09-19T12:17:37;21.90;47.40
81524;DHT22;70954;49.500;10.416;2023-09-19T12:20:03;21.90;46.80
81524;DHT22;70954;49.500;10.416;2023-09-19T12:22:42;21.90;47.10
81524;DHT22;70954;49.500;10.416;2023-09-19T12:25:07;21.90;45.70
81524;DHT22;70954;49.500;10.416;2023-09-19T12:27:42;21.90;46.90
81524;DHT22;70954;49.500;10.416;2023-09-19T12:30:08;21.90;46.50
81524;DHT22;70954;49.500;10.416;2023-09-19T12:32:35;21.90;47.00
81524;DHT22;70954;49.500;10.416;2023-09-19T12:35:00;22.00;47.30
81524;DHT22;70954;49.500;10.416;2023-09-19T12:37:26;22.00;47.60
81524;DHT22;70954;49.500;10.416;2023-09-19T12:39:52;22.00;47.50
81524;DHT22;70954;49.500;10.416;2023-09-19T12:42:20;22.10;47.40
81524;DHT22;70954;49.500;10.416;2023-09-19T12:44:48;22.20;47.50
81524;DHT22;70954;49.500;10.416;2023-09-19T12:47:16;22.30;47.70
81524;DHT22;70954;49.500;10.416;2023-09-19T12:50:17;22.30;47.60
81524;DHT22;70954;49.500;10.416;2023-09-19T12:52:45;22.50;46.50
81524;DHT22;70954;49.500;10.416;2023-09-19T12:55:21;22.50;47.30
81524;DHT22;70954;49.500;10.416;2023-09-19T12:58:07;22.60;46.60
81524;DHT22;70954;49.500;10.416;2023-09-19T13:00:38;22.60;46.40
81524;DHT22;70954;49.500;10.416;2023-09-19T13:03:13;22.60;47.00
81524;DHT22;70954;49.500;10.416;2023-09-19T13:08:25;22.70;46.00
81524;DHT22;70954;49.500;10.416;2023-09-19T13:11:11;22.70;46.40
81524;DHT22;70954;49.500;10.416;2023-09-19T13:13:47;22.70;46.20
81524;DHT22;70954;49.500;10.416;2023-09-19T13:16:12;22.60;46.60
81524;DHT22;70954;49.500;10.416;2023-09-19T13:18:42;22.60;46.40
81524;DHT22;70954;49.500;10.416;2023-09-19T13:21:09;22.60;46.20
81524;DHT22;70954;49.500;10.416;2023-09-19T13:23:34;22.60;46.50
81524;DHT22;70954;49.500;10.416;2023-09-19T13:26:00;22.50;46.50
81524;DHT22;70954;49.500;10.416;2023-09-19T13:28:25;22.60;46.50
81524;DHT22;70954;49.500;10.416;2023-09-19T13:30:51;22.60;46.60
81524;DHT22;70954;49.500;10.416;2023-09-19T13:33:16;22.60;46.00
81524;DHT22;70954;49.500;10.416;2023-09-19T13:35:41;22.60;46.00
81524;DHT22;70954;49.500;10.416;2023-09-19T13:38:07;22.60;45.50
81524;DHT22;70954;49.500;10.416;2023-09-19T13:40:32;22.70;45.70
81524;DHT22;70954;49.500;10.416;2023-09-19T13:42:58;22.70;45.60
81524;DHT22;70954;49.500;10.416;2023-09-19T13:45:23;22.70;45.40
81524;DHT22;70954;49.500;10.416;2023-09-19T13:47:49;22.70;44.80
81524;DHT22;70954;49.500;10.416;2023-09-19T13:50:14;22.70;45.10
81524;DHT22;70954;49.500;10.416;2023-09-19T13:52:40;22.80;45.40
81524;DHT22;70954;49.500;10.416;2023-09-19T13:55:05;22.80;45.20
81524;DHT22;70954;49.500;10.416;2023-09-19T13:57:31;22.80;44.40
81524;DHT22;70954;49.500;10.416;2023-09-19T13:59:56;22.90;44.10
81524;DHT22;70954;49.500;10.416;2023-09-19T14:02:22;22.90;44.30
81524;DHT22;70954;49.500;10.416;2023-09-19T14:04:49;22.90;44.10
81524;DHT22;70954;49.500;10.416;2023-09-19T14:07:15;23.00;44.20
81524;DHT22;70954;49.500;10.416;2023-09-19T14:09:41;23.00;44.20
81524;DHT22;70954;49.500;10.416;2023-09-19T14:12:06;23.00;44.60
81524;DHT22;70954;49.500;10.416;2023-09-19T14:14:32;23.00;44.50
81524;DHT22;70954;49.500;10.416;2023-09-19T14:16:58;23.10;44.20
81524;DHT22;70954;49.500;10.416;2023-09-19T14:19:23;23.10;44.00
81524;DHT22;70954;49.500;10.416;2023-09-19T14:21:51;23.10;43.90
81524;DHT22;70954;49.500;10.416;2023-09-19T14:24:17;23.20;44.00
81524;DHT22;70954;49.500;10.416;2023-09-19T14:26:43;23.20;43.90
81524;DHT22;70954;49.500;10.416;2023-09-19T14:29:08;23.30;44.00
81524;DHT22;70954;49.500;10.416;2023-09-19T14:31:33;23.30;44.00
81524;DHT22;70954;49.500;10.416;2023-09-19T14:34:01;23.30;44.00
81524;DHT22;70954;49.500;10.416;2023-09-19T14:36:27;23.30;43.50
81524;DHT22;70954;49.500;10.416;2023-09-19T14:38:53;23.30;43.60
81524;DHT22;70954;49.500;10.416;2023-09-19T14:41:18;23.30;43.60
81524;DHT22;70954;49.500;10.416;2023-09-19T14:43:44;23.30;43.20
81524;DHT22;70954;49.500;10.416;2023-09-19T14:46:09;23.30;43.40
81524;DHT22;70954;49.500;10.416;2023-09-19T14:48:35;23.30;43.70
81524;DHT22;70954;49.500;10.416;2023-09-19T14:51:05;23.30;43.40
81524;DHT22;70954;49.500;10.416;2023-09-19T14:53:31;23.40;43.10
81524;DHT22;70954;49.500;10.416;2023-09-19T14:56:00;23.40;43.00
81524;DHT22;70954;49.500;10.416;2023-09-19T14:58:26;23.40;42.60
81524;DHT22;70954;49.500;10.416;2023-09-19T15:00:51;23.40;42.80
81524;DHT22;70954;49.500;10.416;2023-09-19T15:03:17;23.30;42.70
81524;DHT22;70954;49.500;10.416;2023-09-19T15:05:42;23.30;42.60
81524;DHT22;70954;49.500;10.416;2023-09-19T15:08:07;23.30;42.90
81524;DHT22;70954;49.500;10.416;2023-09-19T15:10:33;23.30;43.00
81524;DHT22;70954;49.500;10.416;2023-09-19T15:12:58;23.30;43.10
81524;DHT22;70954;49.500;10.416;2023-09-19T15:15:24;23.30;42.90
81524;DHT22;70954;49.500;10.416;2023-09-19T15:17:49;23.20;42.80
81524;DHT22;70954;49.500;10.416;2023-09-19T15:20:15;23.30;43.00
81524;DHT22;70954;49.500;10.416;2023-09-19T15:22:40;23.20;42.90
81524;DHT22;70954;49.500;10.416;2023-09-19T15:25:06;23.20;42.50
81524;DHT22;70954;49.500;10.416;2023-09-19T15:27:32;23.20;42.80
81524;DHT22;70954;49.500;10.416;2023-09-19T15:30:01;23.20;42.60
81524;DHT22;70954;49.500;10.416;2023-09-19T15:32:26;23.20;42.50
81524;DHT22;70954;49.500;10.416;2023-09-19T15:34:52;23.20;42.60
81524;DHT22;70954;49.500;10.416;2023-09-19T15:37:17;23.10;42.70
81524;DHT22;70954;49.500;10.416;2023-09-19T15:39:43;23.10;42.80
81524;DHT22;70954;49.500;10.416;2023-09-19T15:42:08;23.10;42.70
81524;DHT22;70954;49.500;10.416;2023-09-19T15:44:33;23.10;42.60
81524;DHT22;70954;49.500;10.416;2023-09-19T15:46:59;23.00;42.70
81524;DHT22;70954;49.500;10.416;2023-09-19T15:49:24;23.00;42.60
81524;DHT22;70954;49.500;10.416;2023-09-19T15:51:50;23.00;42.70
81524;DHT22;70954;49.500;10.416;2023-09-19T15:54:16;22.90;42.80
81524;DHT22;70954;49.500;10.416;2023-09-19T15:56:42;22.90;42.70
81524;DHT22;70954;49.500;10.416;2023-09-19T15:59:08;22.90;42.80
81524;DHT22;70954;49.500;10.416;2023-09-19T16:01:34;22.90;42.90